createdAt,value
2018-02-27T00:00:34.134Z,-4.25
2018-02-27T00:01:34.108Z,-4.22
2018-02-27T00:02:33.812Z,-4.2
2018-02-27T00:03:33.777Z,-4.38
2018-02-27T00:04:34.283Z,-4.37
2018-02-27T00:05:33.730Z,-4.28
2018-02-27T00:06:34.231Z,-4.25
2018-02-27T00:07:33.671Z,-4.25
2018-02-27T00:08:34.171Z,-4.23
2018-02-27T00:09:33.877Z,-4.29
2018-02-27T00:10:33.851Z,-4.33
2018-02-27T00:11:33.567Z,-4.28
2018-02-27T00:12:34.056Z,-4.26
2018-02-27T00:13:33.764Z,-4.37
2018-02-27T00:14:33.506Z,-4.38
2018-02-27T00:15:33.708Z,-4.41
2018-02-27T00:16:33.467Z,-4.33
2018-02-27T00:17:33.917Z,-4.26
2018-02-27T00:18:33.888Z,-4.29
2018-02-27T00:19:33.603Z,-4.32
2018-02-27T00:20:33.305Z,-4.4
2018-02-27T00:21:33.275Z,-4.4
2018-02-27T00:22:33.253Z,-4.41
2018-02-27T00:23:33.218Z,-4.36
2018-02-27T00:24:33.479Z,-4.36
2018-02-27T00:25:33.433Z,-4.32
2018-02-27T00:26:33.399Z,-4.4
2018-02-27T00:27:33.430Z,-4.38
2018-02-27T00:28:33.337Z,-4.4
2018-02-27T00:29:33.049Z,-4.38
2018-02-27T00:30:33.281Z,-4.36
2018-02-27T00:31:33.584Z,-4.4
2018-02-27T00:32:33.232Z,-4.48
2018-02-27T00:33:32.938Z,-4.47
2018-02-27T00:34:33.169Z,-4.47
2018-02-27T00:35:33.418Z,-4.48
2018-02-27T00:36:33.387Z,-4.5
2018-02-27T00:37:32.826Z,-4.47
2018-02-27T00:38:33.327Z,-4.47
2018-02-27T00:39:33.028Z,-4.48
2018-02-27T00:40:32.739Z,-4.57
2018-02-27T00:41:32.973Z,-4.51
2018-02-27T00:42:32.952Z,-4.57
2018-02-27T00:43:33.186Z,-4.57
2018-02-27T00:44:32.888Z,-4.51
2018-02-27T00:45:32.857Z,-4.62
2018-02-27T00:46:32.834Z,-4.48
2018-02-27T00:47:33.069Z,-4.59
2018-02-27T00:48:32.512Z,-4.59
2018-02-27T00:49:32.749Z,-4.61
2018-02-27T00:50:32.719Z,-4.58
2018-02-27T00:51:32.693Z,-4.65
2018-02-27T00:52:32.400Z,-4.58
2018-02-27T00:53:32.903Z,-4.62
2018-02-27T00:54:32.874Z,-4.62
2018-02-27T00:55:32.576Z,-4.62
2018-02-27T00:56:32.552Z,-4.66
2018-02-27T00:57:32.781Z,-4.65
2018-02-27T00:58:32.495Z,-4.58
2018-02-27T00:59:32.468Z,-4.76
2018-02-27T01:00:32.699Z,-4.75
2018-02-27T01:01:32.415Z,-4.77
2018-02-27T01:02:32.646Z,-4.65
2018-02-27T01:03:32.613Z,-4.8
2018-02-27T01:04:32.323Z,-4.76
2018-02-27T01:05:32.296Z,-4.82
2018-02-27T01:06:32.533Z,-4.77
2018-02-27T01:07:32.500Z,-4.79
2018-02-27T01:08:31.945Z,-4.79
2018-02-27T01:09:32.186Z,-4.79
2018-02-27T01:10:32.159Z,-4.91
2018-02-27T01:11:31.856Z,-4.82
2018-02-27T01:12:31.828Z,-4.89
2018-02-27T01:13:32.068Z,-4.87
2018-02-27T01:14:31.773Z,-4.8
2018-02-27T01:15:32.288Z,-4.87
2018-02-27T01:16:31.980Z,-4.86
2018-02-27T01:17:32.221Z,-4.89
2018-02-27T01:18:32.196Z,-4.87
2018-02-27T01:19:31.633Z,-4.86
2018-02-27T01:20:31.872Z,-4.89
2018-02-27T01:21:32.104Z,-4.82
2018-02-27T01:22:31.749Z,-4.87
2018-02-27T01:23:31.785Z,-4.86
2018-02-27T01:24:31.492Z,-4.93
2018-02-27T01:25:31.723Z,-4.93
2018-02-27T01:26:31.963Z,-5.01
2018-02-27T01:27:31.937Z,-5
2018-02-27T01:28:31.644Z,-5
2018-02-27T01:29:31.610Z,-5.12
2018-02-27T01:30:31.320Z,-5.05
2018-02-27T01:31:31.291Z,-5.03
2018-02-27T01:32:31.788Z,-5.14
2018-02-27T01:33:31.494Z,-5.11
2018-02-27T01:34:31.470Z,-5.11
2018-02-27T01:35:31.444Z,-5.08
2018-02-27T01:36:31.145Z,-5.08
2018-02-27T01:37:31.383Z,-5.19
2018-02-27T01:38:31.090Z,-5.19
2018-02-27T01:39:31.330Z,-5.27
2018-02-27T01:40:31.298Z,-5.14
2018-02-27T01:41:31.266Z,-5.31
2018-02-27T01:42:31.242Z,-5.19
2018-02-27T01:43:31.220Z,-5.27
2018-02-27T01:44:31.186Z,-5.3
2018-02-27T01:45:31.155Z,-5.27
2018-02-27T01:46:31.127Z,-5.23
2018-02-27T01:47:30.833Z,-5.19
2018-02-27T01:48:31.068Z,-5.26
2018-02-27T01:49:31.045Z,-5.26
2018-02-27T01:50:31.013Z,-5.23
2018-02-27T01:51:30.983Z,-5.3
2018-02-27T01:52:31.218Z,-5.27
2018-02-27T01:53:31.253Z,-5.25
2018-02-27T01:54:30.913Z,-5.26
2018-02-27T01:55:30.881Z,-5.33
2018-02-27T01:56:31.131Z,-5.3
2018-02-27T01:57:30.548Z,-5.25
2018-02-27T01:58:31.051Z,-5.33
2018-02-27T01:59:30.752Z,-5.33
2018-02-27T02:00:30.460Z,-5.38
2018-02-27T02:01:30.698Z,-5.25
2018-02-27T02:02:30.673Z,-5.22
2018-02-27T02:03:30.375Z,-5.26
2018-02-27T02:04:30.622Z,-5.26
2018-02-27T02:05:30.585Z,-5.34
2018-02-27T02:06:30.816Z,-5.27
2018-02-27T02:07:30.791Z,-5.2
2018-02-27T02:08:30.498Z,-5.25
2018-02-27T02:09:30.470Z,-5.25
2018-02-27T02:10:30.441Z,-5.34
2018-02-27T02:11:30.424Z,-5.25
2018-02-27T02:12:30.383Z,-5.26
2018-02-27T02:13:30.349Z,-5.35
2018-02-27T02:14:30.323Z,-5.4
2018-02-27T02:15:30.560Z,-5.38
2018-02-27T02:16:30.270Z,-5.54
2018-02-27T02:17:30.236Z,-5.47
2018-02-27T02:18:29.951Z,-5.55
2018-02-27T02:19:29.917Z,-5.55
2018-02-27T02:20:29.882Z,-5.55
2018-02-27T02:21:30.121Z,-5.55
2018-02-27T02:22:30.356Z,-5.59
2018-02-27T02:23:30.329Z,-5.58
2018-02-27T02:24:30.116Z,-5.59
2018-02-27T02:25:30.269Z,-5.56
2018-02-27T02:26:29.979Z,-5.58
2018-02-27T02:27:30.218Z,-5.61
2018-02-27T02:28:29.655Z,-5.65
2018-02-27T02:29:29.896Z,-5.69
2018-02-27T02:30:30.188Z,-5.7
2018-02-27T02:31:29.569Z,-5.74
2018-02-27T02:32:30.085Z,-5.77
2018-02-27T02:33:29.822Z,-5.77
2018-02-27T02:34:29.476Z,-5.77
2018-02-27T02:35:29.718Z,-5.87
2018-02-27T02:36:29.954Z,-5.91
2018-02-27T02:37:29.659Z,-5.83
2018-02-27T02:38:29.368Z,-5.87
2018-02-27T02:39:29.879Z,-5.91
2018-02-27T02:40:29.842Z,-5.87
2018-02-27T02:41:29.810Z,-5.91
2018-02-27T02:42:29.519Z,-5.9
2018-02-27T02:43:29.220Z,-5.91
2018-02-27T02:44:29.727Z,-5.98
2018-02-27T02:45:29.696Z,-5.98
2018-02-27T02:46:29.397Z,-6.08
2018-02-27T02:47:29.374Z,-6.02
2018-02-27T02:48:29.076Z,-5.98
2018-02-27T02:49:29.311Z,-6.09
2018-02-27T02:50:29.016Z,-6.13
2018-02-27T02:51:29.253Z,-6.11
2018-02-27T02:52:29.495Z,-6.08
2018-02-27T02:53:29.193Z,-6.09
2018-02-27T02:54:28.899Z,-6.11
2018-02-27T02:55:29.134Z,-6.11
2018-02-27T02:56:29.375Z,-6.16
2018-02-27T02:57:29.074Z,-6.08
2018-02-27T02:58:29.048Z,-6.12
2018-02-27T02:59:29.286Z,-6.16
2018-02-27T03:00:28.991Z,-6.01
2018-02-27T03:01:29.230Z,-6.13
2018-02-27T03:02:28.932Z,-6.12
2018-02-27T03:03:29.173Z,-6.09
2018-02-27T03:04:29.140Z,-6.13
2018-02-27T03:05:28.850Z,-6.09
2018-02-27T03:06:29.078Z,-6.11
2018-02-27T03:07:29.064Z,-6.12
2018-02-27T03:08:28.787Z,-6.09
2018-02-27T03:09:29.001Z,-6.13
2018-02-27T03:10:28.438Z,-6.12
2018-02-27T03:11:28.940Z,-6.18
2018-02-27T03:12:28.650Z,-6.19
2018-02-27T03:13:28.344Z,-6.06
2018-02-27T03:14:28.856Z,-6.15
2018-02-27T03:15:28.559Z,-6.19
2018-02-27T03:16:28.805Z,-6.15
2018-02-27T03:17:28.788Z,-5.97
2018-02-27T03:18:28.735Z,-6.06
2018-02-27T03:19:28.435Z,-6.11
2018-02-27T03:20:28.412Z,-6.06
2018-02-27T03:21:28.649Z,-6.05
2018-02-27T03:22:28.345Z,-6.15
2018-02-27T03:23:28.107Z,-6.13
2018-02-27T03:24:28.288Z,-6.09
2018-02-27T03:25:28.262Z,-6.12
2018-02-27T03:26:28.504Z,-6.15
2018-02-27T03:27:28.480Z,-6.08
2018-02-27T03:28:28.441Z,-6.05
2018-02-27T03:29:28.408Z,-6.06
2018-02-27T03:30:28.387Z,-6.06
2018-02-27T03:31:28.369Z,-6.15
2018-02-27T03:32:27.792Z,-6.11
2018-02-27T03:33:28.290Z,-6.05
2018-02-27T03:34:28.003Z,-6.11
2018-02-27T03:35:27.978Z,-6.02
2018-02-27T03:36:28.213Z,-5.98
2018-02-27T03:37:27.652Z,-5.95
2018-02-27T03:38:27.880Z,-5.95
2018-02-27T03:39:27.906Z,-6.06
2018-02-27T03:40:27.557Z,-6
2018-02-27T03:41:27.525Z,-5.97
2018-02-27T03:42:27.506Z,-5.95
2018-02-27T03:43:27.730Z,-6.05
2018-02-27T03:44:27.971Z,-6.11
2018-02-27T03:45:27.673Z,-5.98
2018-02-27T03:46:27.913Z,-6.02
2018-02-27T03:47:27.888Z,-5.98
2018-02-27T03:48:27.858Z,-5.95
2018-02-27T03:49:27.559Z,-5.92
2018-02-27T03:50:27.264Z,-5.9
2018-02-27T03:51:27.505Z,-5.97
2018-02-27T03:52:27.470Z,-6.05
2018-02-27T03:53:27.444Z,-6.09
2018-02-27T03:54:27.465Z,-6
2018-02-27T03:55:27.385Z,-6.09
2018-02-27T03:56:27.087Z,-6.11
2018-02-27T03:57:27.331Z,-6.09
2018-02-27T03:58:27.033Z,-6.11
2018-02-27T03:59:27.002Z,-6.24
2018-02-27T04:00:27.241Z,-6.18
2018-02-27T04:01:27.498Z,-6.19
2018-02-27T04:02:27.183Z,-6.18
2018-02-27T04:03:27.149Z,-6.16
2018-02-27T04:04:27.386Z,-6.19
2018-02-27T04:05:27.354Z,-6.18
2018-02-27T04:06:27.077Z,-6.08
2018-02-27T04:07:27.037Z,-6.15
2018-02-27T04:08:27.279Z,-6.09
2018-02-27T04:09:27.252Z,-6.12
2018-02-27T04:10:26.946Z,-6.15
2018-02-27T04:11:26.652Z,-6.18
2018-02-27T04:12:26.891Z,-6.18
2018-02-27T04:13:26.612Z,-6.16
2018-02-27T04:14:26.835Z,-6.12
2018-02-27T04:15:26.803Z,-6.18
2018-02-27T04:16:27.051Z,-6.16
2018-02-27T04:17:27.004Z,-6.15
2018-02-27T04:18:26.976Z,-6.13
2018-02-27T04:19:26.952Z,-6.21
2018-02-27T04:20:26.654Z,-6.29
2018-02-27T04:21:26.904Z,-6.26
2018-02-27T04:22:26.357Z,-6.31
2018-02-27T04:23:26.842Z,-6.27
2018-02-27T04:24:26.557Z,-6.37
2018-02-27T04:25:26.776Z,-6.3
2018-02-27T04:26:26.213Z,-6.39
2018-02-27T04:27:26.445Z,-6.31
2018-02-27T04:28:26.152Z,-6.29
2018-02-27T04:29:26.385Z,-6.29
2018-02-27T04:30:26.372Z,-6.26
2018-02-27T04:31:26.332Z,-6.26
2018-02-27T04:32:26.041Z,-6.26
2018-02-27T04:33:26.543Z,-6.3
2018-02-27T04:34:26.244Z,-6.24
2018-02-27T04:35:25.953Z,-6.29
2018-02-27T04:36:26.191Z,-6.29
2018-02-27T04:37:26.174Z,-6.26
2018-02-27T04:38:26.134Z,-6.3
2018-02-27T04:39:26.360Z,-6.31
2018-02-27T04:40:26.070Z,-6.19
2018-02-27T04:41:26.072Z,-6.21
2018-02-27T04:42:26.274Z,-6.19
2018-02-27T04:43:25.981Z,-6.23
2018-02-27T04:44:25.682Z,-6.29
2018-02-27T04:45:26.197Z,-6.26
2018-02-27T04:46:25.893Z,-6.29
2018-02-27T04:47:25.860Z,-6.34
2018-02-27T04:48:25.836Z,-6.34
2018-02-27T04:49:25.538Z,-6.36
2018-02-27T04:50:25.508Z,-6.31
2018-02-27T04:51:26.012Z,-6.34
2018-02-27T04:52:25.982Z,-6.33
2018-02-27T04:53:25.684Z,-6.36
2018-02-27T04:54:25.666Z,-6.24
2018-02-27T04:55:25.893Z,-6.36
2018-02-27T04:56:25.859Z,-6.42
2018-02-27T04:57:25.834Z,-6.37
2018-02-27T04:58:25.540Z,-6.42
2018-02-27T04:59:25.244Z,-6.44
2018-02-27T05:00:25.736Z,-6.44
2018-02-27T05:01:25.183Z,-6.42
2018-02-27T05:02:25.424Z,-6.45
2018-02-27T05:03:25.392Z,-6.37
2018-02-27T05:04:25.356Z,-6.44
2018-02-27T05:05:25.335Z,-6.33
2018-02-27T05:06:25.299Z,-6.47
2018-02-27T05:07:25.271Z,-6.4
2018-02-27T05:08:25.533Z,-6.42
2018-02-27T05:09:24.943Z,-6.47
2018-02-27T05:10:25.185Z,-6.47
2018-02-27T05:11:24.891Z,-6.47
2018-02-27T05:12:25.118Z,-6.42
2018-02-27T05:13:25.362Z,-6.44
2018-02-27T05:14:25.065Z,-6.48
2018-02-27T05:15:24.768Z,-6.48
2018-02-27T05:16:25.341Z,-6.39
2018-02-27T05:17:24.985Z,-6.45
2018-02-27T05:18:24.678Z,-6.42
2018-02-27T05:19:24.919Z,-6.47
2018-02-27T05:20:24.890Z,-6.45
2018-02-27T05:21:25.120Z,-6.39
2018-02-27T05:22:24.564Z,-6.5
2018-02-27T05:23:25.266Z,-6.45
2018-02-27T05:24:24.506Z,-6.52
2018-02-27T05:25:25.002Z,-6.51
2018-02-27T05:26:24.975Z,-6.48
2018-02-27T05:27:24.942Z,-6.42
2018-02-27T05:28:24.912Z,-6.51
2018-02-27T05:29:24.891Z,-6.4
2018-02-27T05:30:24.854Z,-6.42
2018-02-27T05:31:24.561Z,-6.39
2018-02-27T05:32:24.532Z,-6.45
2018-02-27T05:33:24.504Z,-6.39
2018-02-27T05:34:24.483Z,-6.37
2018-02-27T05:35:24.446Z,-6.42
2018-02-27T05:36:24.149Z,-6.42
2018-02-27T05:37:24.648Z,-6.45
2018-02-27T05:38:24.087Z,-6.39
2018-02-27T05:39:24.589Z,-6.47
2018-02-27T05:40:24.557Z,-6.48
2018-02-27T05:41:24.560Z,-6.47
2018-02-27T05:42:24.252Z,-6.51
2018-02-27T05:43:24.221Z,-6.44
2018-02-27T05:44:24.184Z,-6.58
2018-02-27T05:45:24.157Z,-6.55
2018-02-27T05:46:24.125Z,-6.61
2018-02-27T05:47:24.088Z,-6.5
2018-02-27T05:48:24.055Z,-6.58
2018-02-27T05:49:24.031Z,-6.55
2018-02-27T05:50:23.995Z,-6.58
2018-02-27T05:51:23.707Z,-6.48
2018-02-27T05:52:23.942Z,-6.54
2018-02-27T05:53:23.914Z,-6.44
2018-02-27T05:54:23.627Z,-6.52
2018-02-27T05:55:24.121Z,-6.59
2018-02-27T05:56:23.821Z,-6.58
2018-02-27T05:57:23.793Z,-6.54
2018-02-27T05:58:23.756Z,-6.54
2018-02-27T05:59:23.471Z,-6.61
2018-02-27T06:00:23.970Z,-6.61
2018-02-27T06:01:23.712Z,-6.55
2018-02-27T06:02:23.912Z,-6.61
2018-02-27T06:03:23.616Z,-6.58
2018-02-27T06:04:23.851Z,-6.59
2018-02-27T06:05:23.289Z,-6.63
2018-02-27T06:06:23.524Z,-6.5
2018-02-27T06:07:23.497Z,-6.63
2018-02-27T06:08:23.467Z,-6.67
2018-02-27T06:09:23.717Z,-6.59
2018-02-27T06:10:23.668Z,-6.66
2018-02-27T06:11:23.372Z,-6.59
2018-02-27T06:12:23.343Z,-6.67
2018-02-27T06:13:23.319Z,-6.61
2018-02-27T06:14:23.073Z,-6.58
2018-02-27T06:15:23.266Z,-6.67
2018-02-27T06:16:22.961Z,-6.5
2018-02-27T06:17:23.203Z,-6.61
2018-02-27T06:18:23.434Z,-6.58
2018-02-27T06:19:22.874Z,-6.55
2018-02-27T06:20:23.110Z,-6.66
2018-02-27T06:21:23.083Z,-6.69
2018-02-27T06:22:23.046Z,-6.61
2018-02-27T06:23:22.752Z,-6.66
2018-02-27T06:24:22.991Z,-6.64
2018-02-27T06:25:22.692Z,-6.63
2018-02-27T06:26:23.191Z,-6.61
2018-02-27T06:27:22.632Z,-6.63
2018-02-27T06:28:22.873Z,-6.66
2018-02-27T06:29:22.838Z,-6.66
2018-02-27T06:30:22.817Z,-6.74
2018-02-27T06:31:23.089Z,-6.69
2018-02-27T06:32:22.488Z,-6.73
2018-02-27T06:33:22.988Z,-6.76
2018-02-27T06:34:22.693Z,-6.76
2018-02-27T06:35:22.722Z,-6.76
2018-02-27T06:36:22.631Z,-6.64
2018-02-27T06:37:22.932Z,-6.61
2018-02-27T06:38:22.842Z,-6.69
2018-02-27T06:39:22.811Z,-6.71
2018-02-27T06:40:22.253Z,-6.54
2018-02-27T06:41:22.752Z,-6.66
2018-02-27T06:42:22.718Z,-6.54
2018-02-27T06:43:22.693Z,-6.61
2018-02-27T06:44:22.395Z,-6.5
2018-02-27T06:45:22.370Z,-6.52
2018-02-27T06:46:22.600Z,-6.42
2018-02-27T06:47:22.308Z,-6.5
2018-02-27T06:48:22.539Z,-6.51
2018-02-27T06:49:22.519Z,-6.48
2018-02-27T06:50:22.481Z,-6.45
2018-02-27T06:51:21.924Z,-6.45
2018-02-27T06:52:22.422Z,-6.48
2018-02-27T06:53:21.864Z,-6.45
2018-02-27T06:54:22.147Z,-6.4
2018-02-27T06:55:22.129Z,-6.31
2018-02-27T06:56:22.303Z,-6.3
2018-02-27T06:57:22.273Z,-6.26
2018-02-27T06:58:22.243Z,-6.21
2018-02-27T06:59:21.685Z,-6.16
2018-02-27T07:00:21.959Z,-6.21
2018-02-27T07:01:21.631Z,-6.13
2018-02-27T07:02:22.136Z,-6.24
2018-02-27T07:03:21.570Z,-6.27
2018-02-27T07:04:21.803Z,-6.15
2018-02-27T07:05:22.035Z,-6.11
2018-02-27T07:06:22.056Z,-6.19
2018-02-27T07:07:21.725Z,-6.12
2018-02-27T07:08:21.997Z,-6.11
2018-02-27T07:09:21.668Z,-6.12
2018-02-27T07:10:21.690Z,-6.13
2018-02-27T07:11:21.612Z,-5.97
2018-02-27T07:12:21.567Z,-6.02
2018-02-27T07:13:21.535Z,-6.08
2018-02-27T07:14:21.771Z,-6.05
2018-02-27T07:15:21.490Z,-5.9
2018-02-27T07:16:21.717Z,-5.88
2018-02-27T07:17:21.153Z,-5.79
2018-02-27T07:18:21.653Z,-5.62
2018-02-27T07:19:21.369Z,-5.59
2018-02-27T07:20:21.329Z,-5.55
2018-02-27T07:21:21.572Z,-5.44
2018-02-27T07:22:21.009Z,-5.4
2018-02-27T07:23:21.723Z,-5.23
2018-02-27T07:24:21.214Z,-5.17
2018-02-27T07:25:21.189Z,-5.08
2018-02-27T07:26:20.895Z,-5.11
2018-02-27T07:27:21.128Z,-5
2018-02-27T07:28:20.833Z,-5.01
2018-02-27T07:29:21.071Z,-4.95
2018-02-27T07:30:21.042Z,-4.89
2018-02-27T07:31:21.017Z,-4.85
2018-02-27T07:32:20.720Z,-4.83
2018-02-27T07:33:20.956Z,-4.79
2018-02-27T07:34:21.194Z,-4.93
2018-02-27T07:35:21.243Z,-4.79
2018-02-27T07:36:20.872Z,-4.82
2018-02-27T07:37:21.110Z,-4.69
2018-02-27T07:38:21.084Z,-4.73
2018-02-27T07:39:20.520Z,-4.64
2018-02-27T07:40:20.760Z,-4.64
2018-02-27T07:41:20.467Z,-4.69
2018-02-27T07:42:20.967Z,-4.64
2018-02-27T07:43:20.673Z,-4.59
2018-02-27T07:44:20.645Z,-4.64
2018-02-27T07:45:20.615Z,-4.62
2018-02-27T07:46:20.850Z,-4.51
2018-02-27T07:47:20.570Z,-4.54
2018-02-27T07:48:20.798Z,-4.58
2018-02-27T07:49:20.517Z,-4.64
2018-02-27T07:50:20.770Z,-4.61
2018-02-27T07:51:20.455Z,-4.64
2018-02-27T07:52:20.428Z,-4.59
2018-02-27T07:53:20.400Z,-4.57
2018-02-27T07:54:20.370Z,-4.58
2018-02-27T07:55:20.074Z,-4.61
2018-02-27T07:56:20.042Z,-4.65
2018-02-27T07:57:20.286Z,-4.73
2018-02-27T07:58:20.258Z,-4.75
2018-02-27T07:59:20.224Z,-4.73
2018-02-27T08:00:20.193Z,-4.64
2018-02-27T08:01:20.175Z,-4.69
2018-02-27T08:02:20.144Z,-4.64
2018-02-27T08:03:20.120Z,-4.64
2018-02-27T08:04:19.816Z,-4.54
2018-02-27T08:05:20.054Z,-4.57
2018-02-27T08:06:20.312Z,-4.54
2018-02-27T08:07:20.004Z,-4.5
2018-02-27T08:08:20.240Z,-4.46
2018-02-27T08:09:19.679Z,-4.3
2018-02-27T08:10:20.188Z,-4.32
2018-02-27T08:11:20.156Z,-4.25
2018-02-27T08:12:19.595Z,-4.28
2018-02-27T08:13:20.098Z,-4.26
2018-02-27T08:14:19.537Z,-4.09
2018-02-27T08:15:19.780Z,-4.18
2018-02-27T08:16:19.768Z,-4.05
2018-02-27T08:17:19.721Z,-4.09
2018-02-27T08:18:19.692Z,-4.01
2018-02-27T08:19:19.678Z,-3.96
2018-02-27T08:20:19.648Z,-3.87
2018-02-27T08:21:19.623Z,-3.72
2018-02-27T08:22:19.588Z,-3.61
2018-02-27T08:23:19.826Z,-3.65
2018-02-27T08:24:19.547Z,-3.57
2018-02-27T08:25:19.535Z,-3.61
2018-02-27T08:26:19.516Z,-3.46
2018-02-27T08:27:19.452Z,-3.53
2018-02-27T08:28:19.164Z,-3.61
2018-02-27T08:29:19.402Z,-3.47
2018-02-27T08:30:19.374Z,-3.47
2018-02-27T08:31:19.624Z,-3.32
2018-02-27T08:32:19.314Z,-3.2
2018-02-27T08:33:19.288Z,-3.02
2018-02-27T08:34:19.003Z,-2.6
2018-02-27T08:35:19.516Z,-2.03
2018-02-27T08:36:19.487Z,-1.24
2018-02-27T08:37:19.456Z,-0.3
2018-02-27T08:38:19.454Z,0.15
2018-02-27T08:39:18.872Z,0.03
2018-02-27T08:40:18.841Z,-0.39
2018-02-27T08:41:19.076Z,-0.57
2018-02-27T08:42:19.061Z,-0.34
2018-02-27T08:43:19.301Z,0.27
2018-02-27T08:44:19.076Z,0.94
2018-02-27T08:45:19.253Z,1.58
2018-02-27T08:46:18.964Z,2.17
2018-02-27T08:47:18.940Z,2.79
2018-02-27T08:48:19.198Z,3.09
2018-02-27T08:49:18.908Z,3.18
2018-02-27T08:50:18.879Z,2.94
2018-02-27T08:51:18.849Z,3.16
2018-02-27T08:52:19.094Z,3.58
2018-02-27T08:53:18.548Z,3.89
2018-02-27T08:54:18.526Z,4.04
2018-02-27T08:55:18.783Z,4.46
2018-02-27T08:56:18.813Z,4.4
2018-02-27T08:57:19.041Z,4.58
2018-02-27T08:58:18.709Z,4.5
2018-02-27T08:59:18.948Z,4.59
2018-02-27T09:00:18.668Z,4.7
2018-02-27T09:01:18.651Z,4.99
2018-02-27T09:02:18.894Z,5.4
2018-02-27T09:03:18.352Z,5.59
2018-02-27T09:04:18.599Z,5.63
2018-02-27T09:05:18.849Z,5.75
2018-02-27T09:06:18.554Z,5.89
2018-02-27T09:07:18.806Z,5.88
2018-02-27T09:08:18.532Z,5.75
2018-02-27T09:09:18.552Z,4.96
2018-02-27T09:10:18.750Z,4.21
2018-02-27T09:11:18.477Z,3.6
2018-02-27T09:12:18.450Z,3.68
2018-02-27T09:13:18.434Z,4.14
2018-02-27T09:14:18.684Z,4.59
2018-02-27T09:15:18.130Z,4.88
2018-02-27T09:16:18.385Z,4.88
2018-02-27T09:17:18.366Z,4.89
2018-02-27T09:18:18.609Z,4.89
2018-02-27T09:19:18.438Z,5.09
2018-02-27T09:20:18.377Z,4.92
2018-02-27T09:21:18.292Z,4.46
2018-02-27T09:22:18.279Z,4.51
2018-02-27T09:23:18.455Z,4.61
2018-02-27T09:24:18.230Z,4
2018-02-27T09:25:18.215Z,3.72
2018-02-27T09:26:18.197Z,3.54
2018-02-27T09:27:18.181Z,3.18
2018-02-27T09:28:18.159Z,2.82
2018-02-27T09:29:18.455Z,2.61
2018-02-27T09:30:18.388Z,2.17
2018-02-27T09:31:17.903Z,1.9
2018-02-27T09:32:18.085Z,1.8
2018-02-27T09:33:17.849Z,1.57
2018-02-27T09:34:17.775Z,1.55
2018-02-27T09:35:18.023Z,1.44
2018-02-27T09:36:17.997Z,1.42
2018-02-27T09:37:17.715Z,1.43
2018-02-27T09:38:17.966Z,1.39
2018-02-27T09:39:17.964Z,1.08
2018-02-27T09:40:17.653Z,0.97
2018-02-27T09:41:17.903Z,1.03
2018-02-27T09:42:18.144Z,1.32
2018-02-27T09:43:17.854Z,1.46
2018-02-27T09:44:18.100Z,1.4
2018-02-27T09:45:18.084Z,1.29
2018-02-27T09:46:17.791Z,1.51
2018-02-27T09:47:18.047Z,1.85
2018-02-27T09:48:17.770Z,2.37
2018-02-27T09:49:17.729Z,2.48
2018-02-27T09:50:17.707Z,2.45
2018-02-27T09:51:17.701Z,2.22
2018-02-27T09:52:17.675Z,2.34
2018-02-27T09:53:17.924Z,2.82
2018-02-27T09:54:17.897Z,3.42
2018-02-27T09:55:17.613Z,3.9
2018-02-27T09:56:17.852Z,4.15
2018-02-27T09:57:17.327Z,4.08
2018-02-27T09:58:17.874Z,4.25
2018-02-27T09:59:17.299Z,4.24
2018-02-27T10:00:17.534Z,4.34
2018-02-27T10:01:17.781Z,4.33
2018-02-27T10:02:17.482Z,4.12
2018-02-27T10:03:17.198Z,3.75
2018-02-27T10:04:17.442Z,3.31
2018-02-27T10:05:17.418Z,2.92
2018-02-27T10:06:17.741Z,2.55
2018-02-27T10:07:17.382Z,2.33
2018-02-27T10:08:17.363Z,2.44
2018-02-27T10:09:17.603Z,2.74
2018-02-27T10:10:17.319Z,3.06
2018-02-27T10:11:17.304Z,2.64
2018-02-27T10:12:17.557Z,2.38
2018-02-27T10:13:17.534Z,2.35
2018-02-27T10:14:17.249Z,2.1
2018-02-27T10:15:16.961Z,2.01
2018-02-27T10:16:16.935Z,1.83
2018-02-27T10:17:17.232Z,1.99
2018-02-27T10:18:17.171Z,1.99
2018-02-27T10:19:17.145Z,1.79
2018-02-27T10:20:17.391Z,1.57
2018-02-27T10:21:17.362Z,1.39
2018-02-27T10:22:16.822Z,1.68
2018-02-27T10:23:16.793Z,2.23
2018-02-27T10:24:17.041Z,2.22
2018-02-27T10:25:17.021Z,2.08
2018-02-27T10:26:17.003Z,2.34
2018-02-27T10:27:16.980Z,2.2
2018-02-27T10:28:16.957Z,1.97
2018-02-27T10:29:17.033Z,1.64
2018-02-27T10:30:16.916Z,1.65
2018-02-27T10:31:17.161Z,1.54
2018-02-27T10:32:17.141Z,1.28
2018-02-27T10:33:16.592Z,1.19
2018-02-27T10:34:16.837Z,1.07
2018-02-27T10:35:17.087Z,1.01
2018-02-27T10:36:16.799Z,1.03
2018-02-27T10:37:16.782Z,1.32
2018-02-27T10:38:16.539Z,1.16
2018-02-27T10:39:16.731Z,1.22
2018-02-27T10:40:16.718Z,1.29
2018-02-27T10:41:16.689Z,1.55
2018-02-27T10:42:16.672Z,1.75
2018-02-27T10:43:16.699Z,1.75
2018-02-27T10:44:16.630Z,1.8
2018-02-27T10:45:16.662Z,2.08
2018-02-27T10:46:16.587Z,2.15
2018-02-27T10:47:16.306Z,2.73
2018-02-27T10:48:16.867Z,3.03
2018-02-27T10:49:16.526Z,2.94
2018-02-27T10:50:16.241Z,3.06
2018-02-27T10:51:16.754Z,3.12
2018-02-27T10:52:16.735Z,3.27
2018-02-27T10:53:16.455Z,3.54
2018-02-27T10:54:16.426Z,3.75
2018-02-27T10:55:16.146Z,3.86
2018-02-27T10:56:16.659Z,3.9
2018-02-27T10:57:16.755Z,3.6
2018-02-27T10:58:16.667Z,3.18
2018-02-27T10:59:16.333Z,2.82
2018-02-27T11:00:16.320Z,2.4
2018-02-27T11:01:16.574Z,2.34
2018-02-27T11:02:16.292Z,2.37
2018-02-27T11:03:15.996Z,2.46
2018-02-27T11:04:16.248Z,2.71
2018-02-27T11:05:15.962Z,3.03
2018-02-27T11:06:16.209Z,3.18
2018-02-27T11:07:15.925Z,3.3
2018-02-27T11:08:16.222Z,3.39
2018-02-27T11:09:16.423Z,3.49
2018-02-27T11:10:16.401Z,3.58
2018-02-27T11:11:15.854Z,3.47
2018-02-27T11:12:16.364Z,3.42
2018-02-27T11:13:16.092Z,3.46
2018-02-27T11:14:16.074Z,3.64
2018-02-27T11:15:16.053Z,3.44
2018-02-27T11:16:16.038Z,3.13
2018-02-27T11:17:16.282Z,2.59
2018-02-27T11:18:16.003Z,2.56
2018-02-27T11:19:15.984Z,2.55
2018-02-27T11:20:15.971Z,2.98
2018-02-27T11:21:15.947Z,3.3
2018-02-27T11:22:15.705Z,3.52
2018-02-27T11:23:16.583Z,3.58
2018-02-27T11:24:15.907Z,3.8
2018-02-27T11:25:16.142Z,3.89
2018-02-27T11:26:16.130Z,4.07
2018-02-27T11:27:16.115Z,4.28
2018-02-27T11:28:15.563Z,4.59
2018-02-27T11:29:16.129Z,4.8
2018-02-27T11:30:15.856Z,4.96
2018-02-27T11:31:15.784Z,5.14
2018-02-27T11:32:16.036Z,5.16
2018-02-27T11:33:15.483Z,4.69
2018-02-27T11:34:16.077Z,4.12
2018-02-27T11:35:15.988Z,3.54
2018-02-27T11:36:15.719Z,3.43
2018-02-27T11:37:15.686Z,3.18
2018-02-27T11:38:15.945Z,2.97
2018-02-27T11:39:15.399Z,2.49
2018-02-27T11:40:15.908Z,2.35
2018-02-27T11:41:15.893Z,2.15
2018-02-27T11:42:15.348Z,2.15
2018-02-27T11:43:15.588Z,2.26
2018-02-27T11:44:15.573Z,2.1
2018-02-27T11:45:15.296Z,2.15
2018-02-27T11:46:15.539Z,2.06
2018-02-27T11:47:15.522Z,1.82
2018-02-27T11:48:15.503Z,1.85
2018-02-27T11:49:15.280Z,1.6
2018-02-27T11:50:15.733Z,1.5
2018-02-27T11:51:15.718Z,1.37
2018-02-27T11:52:15.175Z,1.4
2018-02-27T11:53:15.674Z,1.32
2018-02-27T11:54:15.400Z,1.22
2018-02-27T11:55:15.384Z,1.1
2018-02-27T11:56:15.627Z,1.01
2018-02-27T11:57:15.336Z,0.76
2018-02-27T11:58:15.334Z,0.8
2018-02-27T11:59:15.028Z,0.72
2018-02-27T12:00:15.007Z,0.68
2018-02-27T12:01:15.517Z,0.79
2018-02-27T12:02:15.496Z,0.72
2018-02-27T12:03:15.214Z,0.78
2018-02-27T12:04:15.461Z,0.89
2018-02-27T12:05:14.906Z,0.92
2018-02-27T12:06:15.418Z,0.72
2018-02-27T12:07:15.126Z,0.78
2018-02-27T12:08:15.166Z,0.8
2018-02-27T12:09:15.091Z,0.8
2018-02-27T12:10:15.067Z,0.96
2018-02-27T12:11:14.781Z,0.97
2018-02-27T12:12:15.026Z,1.33
2018-02-27T12:13:15.272Z,1.47
2018-02-27T12:14:15.248Z,1.6
2018-02-27T12:15:14.961Z,1.91
2018-02-27T12:16:14.673Z,2.15
2018-02-27T12:17:14.927Z,2.41
2018-02-27T12:18:14.898Z,2.45
2018-02-27T12:19:14.883Z,2.26
2018-02-27T12:20:14.592Z,2.09
2018-02-27T12:21:15.099Z,2.01
2018-02-27T12:22:15.082Z,2.28
2018-02-27T12:23:15.065Z,2.56
2018-02-27T12:24:14.516Z,2.49
2018-02-27T12:25:14.570Z,2.82
2018-02-27T12:26:15.009Z,3.16
2018-02-27T12:27:14.717Z,3.18
2018-02-27T12:28:14.708Z,3.06
2018-02-27T12:29:14.692Z,3.15
2018-02-27T12:30:14.481Z,3.43
2018-02-27T12:31:14.648Z,3.8
2018-02-27T12:32:14.358Z,3.97
2018-02-27T12:33:14.348Z,3.96
2018-02-27T12:34:14.584Z,3.86
2018-02-27T12:35:14.308Z,4.07
2018-02-27T12:36:14.817Z,4.34
2018-02-27T12:37:14.819Z,4.67
2018-02-27T12:38:14.519Z,5.02
2018-02-27T12:39:14.238Z,5.27
2018-02-27T12:40:14.748Z,5.37
2018-02-27T12:41:14.735Z,5.31
2018-02-27T12:42:14.722Z,5.49
2018-02-27T12:43:14.441Z,5.32
2018-02-27T12:44:14.687Z,4.88
2018-02-27T12:45:14.672Z,4.69
2018-02-27T12:46:14.661Z,4.4
2018-02-27T12:47:14.380Z,4.25
2018-02-27T12:48:14.412Z,4.07
2018-02-27T12:49:14.619Z,4.1
2018-02-27T12:50:14.384Z,3.79
2018-02-27T12:51:14.322Z,3.61
2018-02-27T12:52:14.043Z,3.4
2018-02-27T12:53:14.031Z,3.16
2018-02-27T12:54:14.537Z,3.27
2018-02-27T12:55:14.524Z,3.75
2018-02-27T12:56:14.505Z,4.18
2018-02-27T12:57:13.955Z,4.72
2018-02-27T12:58:14.479Z,5.43
2018-02-27T12:59:13.922Z,5.78
2018-02-27T13:00:13.910Z,6.21
2018-02-27T13:01:14.455Z,6.53
2018-02-27T13:02:14.426Z,6.99
2018-02-27T13:03:14.398Z,7.44
2018-02-27T13:04:14.125Z,7.5